Time;durP1;ratioP1;P1;durP2;ratioP2;P2;SDS_P1;SDS_P2;PMS_P1;PMS_P2;Temp;Humidity;BMP_temperature;BMP_pressure;BME280_temperature;BME280_humidity;BME280_pressure;Samples;Min_cycle;Max_cycle;Signal;HPM_P1;HPM_P2
2021/04/14 00:01:20;;;;;;;3.53;1.80;;;7.10;99.20;;;;;;5045944;28;20028;-56
2021/04/14 00:03:46;;;;;;;2.45;2.05;;;7.20;99.20;;;;;;5051227;28;20073;-56
2021/04/14 00:06:13;;;;;;;3.50;1.90;;;7.30;99.10;;;;;;5063299;28;20441;-56
2021/04/14 00:08:38;;;;;;;1.35;1.25;;;7.40;98.90;;;;;;5065471;28;20442;-56
2021/04/14 00:11:06;;;;;;;1.55;1.30;;;7.30;98.90;;;;;;5064192;28;20040;-56
2021/04/14 00:13:41;;;;;;;2.55;1.50;;;7.40;98.90;;;;;;5051300;28;20037;-56
2021/04/14 00:16:08;;;;;;;1.85;1.38;;;7.30;99.10;;;;;;5044772;28;20048;-56
2021/04/14 00:18:33;;;;;;;2.42;1.80;;;7.10;99.60;;;;;;5044637;28;20040;-57
2021/04/14 00:21:00;;;;;;;2.17;1.83;;;7.00;99.80;;;;;;5061263;28;20024;-56
2021/04/14 00:23:26;;;;;;;2.17;1.60;;;6.90;99.90;;;;;;5052089;28;20036;-57
2021/04/14 00:25:52;;;;;;;2.22;1.73;;;7.00;99.80;;;;;;5043315;28;20029;-56
2021/04/14 00:28:21;;;;;;;2.33;1.70;;;7.10;99.60;;;;;;5044265;28;20028;-56
2021/04/14 00:30:48;;;;;;;2.42;1.70;;;7.00;99.90;;;;;;5043652;28;20049;-56
2021/04/14 00:33:15;;;;;;;3.17;1.70;;;7.00;99.90;;;;;;5044000;28;20060;-56
2021/04/14 00:35:41;;;;;;;2.20;1.80;;;6.90;99.90;;;;;;5043777;28;20496;-56
2021/04/14 00:38:09;;;;;;;2.05;1.50;;;6.90;99.90;;;;;;5043944;28;20036;-56
2021/04/14 00:40:39;;;;;;;2.00;1.60;;;6.90;99.90;;;;;;5043841;28;20444;-56
2021/04/14 00:43:12;;;;;;;2.40;1.65;;;6.80;99.90;;;;;;5043529;28;20499;-56
2021/04/14 00:45:39;;;;;;;2.55;1.80;;;6.80;99.90;;;;;;5044787;28;20372;-56
2021/04/14 00:48:07;;;;;;;4.40;1.80;;;6.60;99.90;;;;;;5043975;28;20028;-57
2021/04/14 00:50:35;;;;;;;2.63;1.80;;;6.60;99.90;;;;;;5043371;28;20040;-57
2021/04/14 00:53:02;;;;;;;2.60;1.85;;;6.60;99.90;;;;;;5044044;28;20483;-56
2021/04/14 00:55:30;;;;;;;2.30;1.40;;;6.60;99.90;;;;;;5042564;28;20028;-56
2021/04/14 00:57:57;;;;;;;2.42;1.70;;;6.50;99.90;;;;;;5043792;28;20055;-57
2021/04/14 01:00:32;;;;;;;1.85;1.45;;;6.50;99.90;;;;;;5043751;28;20052;-56
2021/04/14 01:02:59;;;;;;;2.25;1.80;;;6.30;99.90;;;;;;5063017;28;20047;-55
2021/04/14 01:05:27;;;;;;;2.00;1.80;;;6.40;99.90;;;;;;5063460;28;20028;-56
2021/04/14 01:07:53;;;;;;;2.75;1.98;;;6.50;99.90;;;;;;5057285;28;20094;-57
2021/04/14 01:10:19;;;;;;;2.33;1.65;;;6.50;99.90;;;;;;5059924;28;20429;-56
2021/04/14 01:12:45;;;;;;;2.17;1.48;;;6.50;99.90;;;;;;5064420;28;20028;-57
2021/04/14 01:15:14;;;;;;;2.13;1.70;;;6.40;99.90;;;;;;5064913;28;20466;-57
2021/04/14 01:17:41;;;;;;;2.33;1.70;;;6.30;99.90;;;;;;5066454;28;20036;-56
2021/04/14 01:20:07;;;;;;;1.73;1.40;;;6.30;99.90;;;;;;5067808;28;20025;-57
2021/04/14 01:22:34;;;;;;;2.00;1.80;;;6.30;99.90;;;;;;5068521;28;20031;-57
2021/04/14 01:25:00;;;;;;;1.80;1.50;;;6.40;99.90;;;;;;5068213;28;20102;-56
2021/04/14 01:27:26;;;;;;;1.75;1.63;;;6.20;99.90;;;;;;5068136;28;20031;-56
2021/04/14 01:29:52;;;;;;;2.05;1.80;;;6.10;99.90;;;;;;5068190;28;20020;-56
2021/04/14 01:32:18;;;;;;;2.67;1.83;;;6.10;99.90;;;;;;5067915;28;20075;-56
2021/04/14 01:34:45;;;;;;;2.25;2.05;;;6.10;99.90;;;;;;5067450;28;20052;-56
2021/04/14 01:37:11;;;;;;;3.78;2.00;;;6.10;99.90;;;;;;5067676;28;20072;-56
2021/04/14 01:39:37;;;;;;;2.45;1.70;;;6.10;99.90;;;;;;5068046;28;20028;-56
2021/04/14 01:42:03;;;;;;;3.28;1.90;;;6.00;99.90;;;;;;5068064;28;20032;-56
2021/04/14 01:44:29;;;;;;;2.70;1.98;;;6.00;99.90;;;;;;5068271;28;20025;-56
2021/04/14 01:46:55;;;;;;;3.03;2.00;;;6.10;99.90;;;;;;5067852;28;20052;-56
2021/04/14 01:49:20;;;;;;;2.70;1.80;;;6.10;99.90;;;;;;5067319;28;20102;-56
2021/04/14 01:51:48;;;;;;;2.65;1.98;;;6.10;99.90;;;;;;5068215;28;20020;-56
2021/04/14 01:54:13;;;;;;;2.15;1.58;;;6.10;99.90;;;;;;5067747;28;20021;-57
2021/04/14 01:56:41;;;;;;;1.90;1.60;;;6.00;99.90;;;;;;5068365;28;20383;-57
2021/04/14 01:59:07;;;;;;;2.28;1.58;;;5.90;99.90;;;;;;5067453;28;20153;-56
2021/04/14 02:01:33;;;;;;;3.35;1.88;;;6.00;99.90;;;;;;5067359;28;20106;-56
2021/04/14 02:03:58;;;;;;;1.65;1.50;;;6.00;99.90;;;;;;5067083;28;20526;-56
2021/04/14 02:06:24;;;;;;;2.40;1.63;;;6.00;99.90;;;;;;5066549;28;20033;-56
2021/04/14 02:08:51;;;;;;;2.80;1.92;;;6.00;99.90;;;;;;5067437;28;20028;-56
2021/04/14 02:11:18;;;;;;;2.47;2.13;;;5.90;99.90;;;;;;5067079;28;20040;-56
2021/04/14 02:13:44;;;;;;;2.55;1.73;;;5.90;99.90;;;;;;5067302;28;20025;-57
2021/04/14 02:16:17;;;;;;;2.35;1.90;;;5.90;99.90;;;;;;5068090;28;20036;-57
2021/04/14 02:18:44;;;;;;;2.58;1.92;;;5.80;99.90;;;;;;5065795;28;20040;-56
2021/04/14 02:21:10;;;;;;;2.35;1.95;;;5.70;99.90;;;;;;5067580;28;20044;-56
2021/04/14 02:23:41;;;;;;;2.78;2.05;;;5.80;99.90;;;;;;5066165;28;20083;-56
2021/04/14 02:26:10;;;;;;;2.55;1.80;;;5.60;99.90;;;;;;5066710;28;20033;-57
2021/04/14 02:28:37;;;;;;;2.55;2.08;;;5.70;99.90;;;;;;5066868;28;20521;-56
2021/04/14 02:31:04;;;;;;;3.25;2.45;;;5.60;99.90;;;;;;5067165;28;20101;-56
2021/04/14 02:33:30;;;;;;;4.22;2.22;;;5.50;99.90;;;;;;5066076;28;20107;-56
2021/04/14 02:35:56;;;;;;;3.05;2.40;;;5.50;99.90;;;;;;5066595;28;20158;-56
2021/04/14 02:38:23;;;;;;;3.97;2.58;;;5.40;99.90;;;;;;5067222;28;20036;-56
2021/04/14 02:40:50;;;;;;;2.90;2.08;;;5.30;99.90;;;;;;5066747;28;20032;-56
2021/04/14 02:43:16;;;;;;;2.35;2.15;;;5.20;99.90;;;;;;5066312;28;20036;-57
2021/04/14 02:45:42;;;;;;;2.92;2.20;;;5.30;99.90;;;;;;5066625;28;20064;-57
2021/04/14 02:48:10;;;;;;;3.65;2.50;;;5.20;99.90;;;;;;5066134;28;20105;-57
2021/04/14 02:50:36;;;;;;;2.28;2.00;;;5.20;99.90;;;;;;5066681;28;20032;-56
2021/04/14 02:53:04;;;;;;;3.47;2.03;;;5.20;99.90;;;;;;5065764;28;20028;-56
2021/04/14 02:55:31;;;;;;;2.58;2.10;;;5.10;99.90;;;;;;5066040;28;20055;-57
2021/04/14 02:57:57;;;;;;;2.50;1.90;;;5.20;99.90;;;;;;5066335;28;20032;-56
2021/04/14 03:00:25;;;;;;;2.42;1.85;;;5.10;99.90;;;;;;5066460;28;20074;-56
2021/04/14 03:02:51;;;;;;;2.95;2.00;;;5.20;99.90;;;;;;5066788;28;20406;-56
2021/04/14 03:05:20;;;;;;;2.30;1.98;;;5.10;99.90;;;;;;5066250;28;20033;-56
2021/04/14 03:07:45;;;;;;;2.78;2.00;;;4.90;99.90;;;;;;5065800;28;20035;-56
2021/04/14 03:10:11;;;;;;;2.50;1.98;;;4.90;99.90;;;;;;5066042;28;20040;-56
2021/04/14 03:12:38;;;;;;;3.10;2.30;;;4.90;99.90;;;;;;5066136;28;20021;-56
2021/04/14 03:15:06;;;;;;;2.38;1.83;;;4.80;99.90;;;;;;5065754;28;20037;-56
2021/04/14 03:17:33;;;;;;;3.53;1.90;;;4.90;99.90;;;;;;5066009;28;20020;-55
2021/04/14 03:19:59;;;;;;;2.08;1.88;;;4.90;99.90;;;;;;5066042;28;20047;-56
2021/04/14 03:22:25;;;;;;;2.78;2.17;;;5.10;99.90;;;;;;5065541;28;20024;-56
2021/04/14 03:24:51;;;;;;;2.55;2.08;;;5.00;99.90;;;;;;5066483;28;20016;-56
2021/04/14 03:27:17;;;;;;;2.20;1.83;;;5.00;99.90;;;;;;5065493;28;20518;-56
2021/04/14 03:29:43;;;;;;;2.38;1.98;;;4.90;99.90;;;;;;5065801;28;20032;-56
2021/04/14 03:32:09;;;;;;;3.13;2.28;;;4.80;99.90;;;;;;5065195;28;20111;-56
2021/04/14 03:34:35;;;;;;;3.42;2.35;;;4.60;99.90;;;;;;5064401;28;20099;-56
2021/04/14 03:37:00;;;;;;;2.45;2.10;;;4.70;99.90;;;;;;5065900;28;20031;-56
2021/04/14 03:39:26;;;;;;;3.50;2.35;;;4.50;99.90;;;;;;5062292;28;20036;-56
2021/04/14 03:41:52;;;;;;;4.28;3.03;;;4.50;99.90;;;;;;5058319;28;20037;-56
2021/04/14 03:44:18;;;;;;;3.90;2.45;;;4.50;99.90;;;;;;5046204;28;20633;-56
2021/04/14 03:46:43;;;;;;;3.75;2.50;;;4.60;99.90;;;;;;5059662;28;20755;-56
2021/04/14 03:49:09;;;;;;;5.95;3.22;;;4.60;99.90;;;;;;5053847;28;20512;-56
2021/04/14 03:51:36;;;;;;;6.78;2.83;;;4.30;99.90;;;;;;5046654;28;20021;-56
2021/04/14 03:54:02;;;;;;;4.05;2.88;;;4.40;99.90;;;;;;5046821;28;20025;-55
2021/04/14 03:56:28;;;;;;;3.60;2.72;;;4.50;99.90;;;;;;5046508;28;20128;-56
2021/04/14 03:58:54;;;;;;;4.22;2.75;;;4.40;99.90;;;;;;5060000;28;20645;-56
2021/04/14 04:01:27;;;;;;;4.72;2.67;;;4.40;99.90;;;;;;5067374;28;20024;-56
2021/04/14 04:03:54;;;;;;;4.05;2.63;;;4.50;99.90;;;;;;5067122;28;20031;-56
2021/04/14 04:06:20;;;;;;;3.47;2.70;;;4.50;99.90;;;;;;5066717;28;20024;-55
2021/04/14 04:08:47;;;;;;;3.83;2.72;;;4.40;99.90;;;;;;5066531;28;20033;-55
2021/04/14 04:11:14;;;;;;;6.18;2.78;;;4.30;99.90;;;;;;5066452;28;20038;-55
2021/04/14 04:13:41;;;;;;;3.65;2.67;;;4.30;99.90;;;;;;5060051;28;20416;-55
2021/04/14 04:16:06;;;;;;;5.57;3.17;;;4.30;99.90;;;;;;5045259;28;20519;-55
2021/04/14 04:18:33;;;;;;;3.97;2.85;;;4.30;99.90;;;;;;5046710;28;20048;-55
2021/04/14 04:20:59;;;;;;;4.45;3.00;;;4.20;99.90;;;;;;5046340;28;20111;-55
2021/04/14 04:23:26;;;;;;;4.45;3.20;;;4.30;99.90;;;;;;5047142;28;20025;-55
2021/04/14 04:25:52;;;;;;;3.88;2.90;;;4.10;99.90;;;;;;5066378;28;20422;-57
2021/04/14 04:28:19;;;;;;;5.38;3.47;;;4.10;99.90;;;;;;5066199;28;20024;-55
2021/04/14 04:30:45;;;;;;;2.92;2.50;;;4.10;99.90;;;;;;5064860;28;20077;-55
2021/04/14 04:33:11;;;;;;;3.40;2.90;;;4.10;99.90;;;;;;5054102;28;20033;-55
2021/04/14 04:35:37;;;;;;;5.22;2.92;;;4.10;99.90;;;;;;5057298;28;20514;-55
2021/04/14 04:38:03;;;;;;;4.05;3.20;;;4.00;99.90;;;;;;5063241;28;20089;-55
2021/04/14 04:40:30;;;;;;;3.33;2.47;;;4.10;99.90;;;;;;5064648;28;20032;-55
2021/04/14 04:42:56;;;;;;;3.47;3.17;;;4.10;99.90;;;;;;5065227;28;20024;-55
2021/04/14 04:45:27;;;;;;;4.53;3.35;;;4.00;99.90;;;;;;5065119;28;20024;-55
2021/04/14 04:47:53;;;;;;;3.22;2.80;;;3.90;99.90;;;;;;5064753;28;20040;-55
2021/04/14 04:50:20;;;;;;;5.40;3.28;;;4.10;99.90;;;;;;5064930;28;20017;-55
2021/04/14 04:52:46;;;;;;;4.05;3.08;;;4.10;99.90;;;;;;5062479;28;20067;-55
2021/04/14 04:55:13;;;;;;;4.20;2.83;;;4.00;99.90;;;;;;5063394;28;20028;-55
2021/04/14 04:57:39;;;;;;;2.80;2.30;;;4.10;99.90;;;;;;5064447;28;20510;-54
2021/04/14 05:00:06;;;;;;;3.45;2.70;;;4.20;99.90;;;;;;5064222;28;20505;-56
2021/04/14 05:02:32;;;;;;;3.17;2.42;;;4.20;99.90;;;;;;5064158;28;20032;-55
2021/04/14 05:04:59;;;;;;;4.20;2.92;;;4.30;99.90;;;;;;5064234;28;20031;-55
2021/04/14 05:07:25;;;;;;;3.53;2.90;;;4.10;99.90;;;;;;5064036;28;20043;-55
2021/04/14 05:09:51;;;;;;;4.38;3.33;;;4.20;99.90;;;;;;5064340;28;20491;-54
2021/04/14 05:12:17;;;;;;;3.30;2.80;;;4.20;99.90;;;;;;5063931;28;20456;-55
2021/04/14 05:14:44;;;;;;;4.65;3.35;;;4.00;99.90;;;;;;5064677;28;20028;-55
2021/04/14 05:17:10;;;;;;;4.38;3.45;;;4.20;99.90;;;;;;5063798;28;20031;-54
2021/04/14 05:19:35;;;;;;;4.72;3.88;;;4.10;99.90;;;;;;5064297;28;20017;-54
2021/04/14 05:22:02;;;;;;;7.78;3.88;;;4.10;99.90;;;;;;5064164;28;20024;-55
2021/04/14 05:24:28;;;;;;;4.68;3.58;;;4.10;99.90;;;;;;5064298;28;20406;-56
2021/04/14 05:26:53;;;;;;;4.60;3.85;;;4.10;99.90;;;;;;5064837;28;20019;-54
2021/04/14 05:29:19;;;;;;;4.50;3.38;;;4.20;99.90;;;;;;5064186;28;20016;-54
2021/04/14 05:31:47;;;;;;;5.05;3.88;;;4.20;99.90;;;;;;5063781;28;20449;-55
2021/04/14 05:34:13;;;;;;;5.13;3.72;;;4.10;99.90;;;;;;5063141;28;20503;-54
2021/04/14 05:36:39;;;;;;;6.57;4.07;;;4.10;99.90;;;;;;5064050;28;20172;-55
2021/04/14 05:39:05;;;;;;;6.55;3.63;;;4.10;99.90;;;;;;5063846;28;20032;-54
2021/04/14 05:41:31;;;;;;;6.00;3.83;;;4.10;99.90;;;;;;5064037;28;20029;-55
2021/04/14 05:43:57;;;;;;;6.60;4.03;;;4.20;99.90;;;;;;5064070;28;20035;-55
2021/04/14 05:46:22;;;;;;;5.43;3.85;;;4.20;99.90;;;;;;5064257;28;20119;-54
2021/04/14 05:48:50;;;;;;;5.85;3.72;;;4.10;99.90;;;;;;5064164;28;20033;-55
2021/04/14 05:51:30;;;;;;;5.65;4.63;;;4.30;99.90;;;;;;5063839;28;20042;-54
2021/04/14 05:53:57;;;;;;;4.80;3.65;;;4.40;99.90;;;;;;5064560;28;20040;-55
2021/04/14 05:56:24;;;;;;;6.40;4.38;;;4.30;99.90;;;;;;5064368;28;20062;-55
2021/04/14 05:58:50;;;;;;;6.80;4.60;;;4.30;99.90;;;;;;5064063;28;20053;-54
2021/04/14 06:01:19;;;;;;;6.80;4.55;;;4.30;99.90;;;;;;5063701;28;20438;-55
2021/04/14 06:03:49;;;;;;;5.10;4.10;;;4.20;99.90;;;;;;5065215;28;20582;-55
2021/04/14 06:06:15;;;;;;;5.93;3.70;;;4.40;99.90;;;;;;5066732;28;20025;-55
2021/04/14 06:08:42;;;;;;;8.27;5.20;;;4.50;99.90;;;;;;5067348;28;20039;-54
2021/04/14 06:11:08;;;;;;;6.68;4.93;;;4.60;99.90;;;;;;5067016;28;20022;-55
2021/04/14 06:13:35;;;;;;;11.82;6.97;;;4.60;99.90;;;;;;5067301;28;20390;-54
2021/04/14 06:16:05;;;;;;;8.85;5.93;;;4.60;99.90;;;;;;5066177;28;20052;-54
2021/04/14 06:18:31;;;;;;;7.50;4.97;;;4.60;99.90;;;;;;5067208;28;20467;-55
2021/04/14 06:20:59;;;;;;;6.65;4.65;;;4.60;99.90;;;;;;5067486;28;20052;-55
2021/04/14 06:23:26;;;;;;;6.93;4.53;;;4.90;99.90;;;;;;5067362;28;20028;-55
2021/04/14 06:28:25;;;;;;;6.90;4.20;;;4.90;99.90;;;;;;5067411;28;20648;-54
2021/04/14 06:30:51;;;;;;;6.93;5.13;;;4.90;99.90;;;;;;5066906;28;20023;-55
2021/04/14 06:33:19;;;;;;;7.20;4.93;;;5.00;99.90;;;;;;5066866;28;20100;-55
2021/04/14 06:35:46;;;;;;;6.55;4.35;;;5.20;99.90;;;;;;5066831;28;20036;-54
2021/04/14 06:38:16;;;;;;;7.18;5.07;;;5.20;99.90;;;;;;5066510;28;20044;-55
2021/04/14 06:43:41;;;;;;;11.18;6.47;;;5.00;99.90;;;;;;5066441;28;20608;-54
2021/04/14 06:46:14;;;;;;;12.63;7.15;;;5.00;99.90;;;;;;5066418;28;20024;-55
2021/04/14 06:49:02;;;;;;;8.93;6.22;;;5.00;99.90;;;;;;5066838;28;20032;-55
2021/04/14 06:51:32;;;;;;;7.95;5.50;;;5.10;99.90;;;;;;5066566;28;20024;-54
2021/04/14 06:54:19;;;;;;;8.32;5.38;;;5.20;99.90;;;;;;5066511;28;20036;-56
2021/04/14 06:56:51;;;;;;;7.30;4.57;;;5.40;99.90;;;;;;5066518;28;20024;-55
2021/04/14 06:59:21;;;;;;;5.82;4.40;;;5.40;99.90;;;;;;5066433;28;20472;-55
2021/04/14 07:02:08;;;;;;;5.88;4.40;;;5.50;99.90;;;;;;5066396;28;20025;-54
2021/04/14 07:04:38;;;;;;;4.90;4.10;;;5.50;99.90;;;;;;5066575;28;20036;-55
2021/04/14 07:07:08;;;;;;;6.07;4.43;;;5.50;99.90;;;;;;5065302;28;20024;-54
2021/04/14 07:09:43;;;;;;;5.00;4.05;;;5.30;99.90;;;;;;5066169;28;20130;-55
2021/04/14 07:12:14;;;;;;;5.13;3.88;;;5.30;99.90;;;;;;5065197;28;20017;-56
2021/04/14 07:14:41;;;;;;;5.47;4.32;;;5.40;99.90;;;;;;5066029;28;20066;-55
2021/04/14 07:17:13;;;;;;;4.40;3.75;;;5.50;99.90;;;;;;5065742;28;20036;-56
2021/04/14 07:20:01;;;;;;;5.30;3.92;;;5.50;99.90;;;;;;5066324;28;20461;-55
2021/04/14 07:22:40;;;;;;;4.50;3.63;;;5.50;99.90;;;;;;5066183;28;20399;-55
2021/04/14 07:25:17;;;;;;;4.88;3.50;;;5.60;99.90;;;;;;5056300;28;20088;-55
2021/04/14 07:27:48;;;;;;;4.20;3.47;;;5.50;99.90;;;;;;5052551;28;20120;-55
2021/04/14 07:30:41;;;;;;;5.47;3.85;;;5.60;99.90;;;;;;5056382;28;20021;-55
2021/04/14 07:33:30;;;;;;;3.50;3.03;;;5.60;99.90;;;;;;5050487;28;20491;-55
2021/04/14 07:36:19;;;;;;;6.88;5.05;;;5.70;99.90;;;;;;5053795;28;20032;-55
2021/04/14 07:39:01;;;;;;;5.97;4.55;;;5.40;99.90;;;;;;5047432;28;20083;-55
2021/04/14 07:41:50;;;;;;;4.78;3.88;;;5.50;99.90;;;;;;5060167;28;20095;-54
2021/04/14 07:44:33;;;;;;;4.40;3.50;;;5.50;99.90;;;;;;5060318;28;20025;-55
2021/04/14 07:47:00;;;;;;;4.97;3.92;;;5.60;99.90;;;;;;5067079;28;20023;-55
2021/04/14 07:49:33;;;;;;;5.20;3.70;;;5.70;99.90;;;;;;5049434;28;20021;-54
2021/04/14 07:51:59;;;;;;;4.55;3.50;;;5.80;99.90;;;;;;5061088;28;20111;-55
2021/04/14 07:54:38;;;;;;;5.88;3.58;;;5.70;99.90;;;;;;5058342;28;20041;-55
2021/04/14 07:57:04;;;;;;;6.10;3.97;;;5.70;99.90;;;;;;5066657;28;20037;-55
2021/04/14 07:59:36;;;;;;;5.78;4.57;;;6.00;99.90;;;;;;5047216;28;20032;-55
2021/04/14 08:02:06;;;;;;;5.03;3.97;;;6.00;99.90;;;;;;5051085;28;20032;-55
2021/04/14 08:04:36;;;;;;;6.43;4.47;;;5.90;99.90;;;;;;5066914;28;20033;-55
2021/04/14 08:07:23;;;;;;;9.80;5.40;;;6.00;99.90;;;;;;5057515;28;20016;-55
2021/04/14 08:09:55;;;;;;;6.60;4.93;;;6.20;99.90;;;;;;5046753;28;20099;-55
2021/04/14 08:12:54;;;;;;;5.07;4.18;;;6.10;99.90;;;;;;5046315;28;20020;-55
2021/04/14 08:15:28;;;;;;;8.57;4.43;;;6.10;99.90;;;;;;5056312;28;20029;-55
2021/04/14 08:18:18;;;;;;;7.50;5.88;;;6.20;99.90;;;;;;5047477;28;20099;-55
2021/04/14 08:21:02;;;;;;;6.63;4.88;;;6.30;99.90;;;;;;5053191;28;20021;-55
2021/04/14 08:23:28;;;;;;;6.55;4.70;;;6.20;99.90;;;;;;5065747;28;20061;-58
2021/04/14 08:25:56;;;;;;;6.97;4.80;;;6.20;99.90;;;;;;5056513;28;20052;-55
2021/04/14 08:28:49;;;;;;;5.82;3.90;;;6.40;99.90;;;;;;5051145;28;20043;-57
2021/04/14 08:31:51;;;;;;;7.15;5.28;;;6.30;99.90;;;;;;5043452;28;20523;-55
2021/04/14 08:34:24;;;;;;;7.75;4.70;;;6.30;99.90;;;;;;5044168;28;20087;-55
2021/04/14 08:37:19;;;;;;;7.27;4.90;;;6.40;99.90;;;;;;5044748;28;20481;-56
2021/04/14 08:40:15;;;;;;;5.10;4.28;;;6.40;99.90;;;;;;5058165;28;20286;-55
2021/04/14 08:42:41;;;;;;;5.55;4.20;;;6.50;99.90;;;;;;5047442;28;20044;-55
2021/04/14 08:45:10;;;;;;;5.72;3.65;;;6.50;99.90;;;;;;5044371;28;20519;-56
2021/04/14 08:47:41;;;;;;;5.72;3.80;;;6.60;99.90;;;;;;5047773;28;20411;-56
2021/04/14 08:50:11;;;;;;;5.35;3.42;;;6.60;99.90;;;;;;5056250;28;20035;-56
2021/04/14 08:52:45;;;;;;;4.78;3.58;;;6.80;99.90;;;;;;5056757;28;20048;-56
2021/04/14 08:55:12;;;;;;;8.98;4.85;;;6.80;99.90;;;;;;5044580;28;20419;-55
2021/04/14 08:57:38;;;;;;;5.15;4.05;;;6.80;99.90;;;;;;5046118;28;20037;-55
2021/04/14 09:00:06;;;;;;;5.43;3.58;;;6.80;99.90;;;;;;5044199;28;20044;-55
2021/04/14 09:02:33;;;;;;;6.50;4.55;;;6.80;99.90;;;;;;5044855;28;20029;-56
2021/04/14 09:05:01;;;;;;;7.03;5.35;;;6.80;99.90;;;;;;5044532;28;20104;-55
2021/04/14 09:07:32;;;;;;;6.68;4.47;;;6.80;99.90;;;;;;5043863;28;20479;-56
2021/04/14 09:09:59;;;;;;;5.18;4.28;;;6.70;99.90;;;;;;5044521;28;20028;-56
2021/04/14 09:12:43;;;;;;;6.43;4.25;;;6.70;99.90;;;;;;5045221;28;20017;-55
2021/04/14 09:15:12;;;;;;;5.50;3.67;;;6.90;99.90;;;;;;5044079;28;20400;-56
2021/04/14 09:17:38;;;;;;;4.93;3.75;;;7.00;99.90;;;;;;5044307;28;20045;-56
2021/04/14 09:20:21;;;;;;;6.53;4.03;;;6.80;99.90;;;;;;5044395;28;20028;-56
2021/04/14 09:23:04;;;;;;;5.72;3.97;;;6.90;99.90;;;;;;5044380;28;20032;-57
2021/04/14 09:25:44;;;;;;;6.20;4.07;;;7.00;99.90;;;;;;5044534;28;20025;-56
2021/04/14 09:28:26;;;;;;;4.93;3.50;;;7.10;99.90;;;;;;5044357;28;20400;-56
2021/04/14 09:31:06;;;;;;;7.18;5.15;;;7.20;99.90;;;;;;5044690;28;20104;-56
2021/04/14 09:33:42;;;;;;;4.32;3.03;;;7.10;99.90;;;;;;5043626;28;20028;-56
2021/04/14 09:36:11;;;;;;;7.00;3.72;;;7.50;99.90;;;;;;5044045;28;20032;-56
2021/04/14 09:38:53;;;;;;;5.75;4.03;;;7.50;99.90;;;;;;5045531;28;20442;-57
2021/04/14 09:41:37;;;;;;;9.00;5.18;;;7.50;99.90;;;;;;5048027;28;20029;-56
2021/04/14 09:44:35;;;;;;;10.88;5.68;;;7.30;99.90;;;;;;5047891;28;20021;-57
2021/04/14 09:47:12;;;;;;;9.93;4.50;;;7.30;99.90;;;;;;5047866;28;20040;-56
2021/04/14 09:49:42;;;;;;;8.40;4.45;;;7.40;99.90;;;;;;5048277;28;20056;-56
2021/04/14 09:52:28;;;;;;;13.07;6.22;;;7.40;99.90;;;;;;5047624;28;20057;-58
2021/04/14 09:55:08;;;;;;;8.73;4.82;;;7.40;99.90;;;;;;5048491;28;20017;-56
2021/04/14 09:57:41;;;;;;;10.77;5.25;;;7.60;99.90;;;;;;5047926;28;20100;-56
2021/04/14 10:00:14;;;;;;;7.45;3.95;;;7.50;99.90;;;;;;5047919;28;20048;-57
2021/04/14 10:02:40;;;;;;;6.40;3.70;;;7.70;99.90;;;;;;5047575;28;20095;-55
2021/04/14 10:05:06;;;;;;;10.75;5.68;;;7.80;99.90;;;;;;5047676;28;20152;-56
2021/04/14 10:07:37;;;;;;;10.75;5.53;;;7.80;99.90;;;;;;5046988;28;20024;-55
2021/04/14 10:10:17;;;;;;;7.63;5.00;;;7.60;99.90;;;;;;5047567;28;20033;-56
2021/04/14 10:12:42;;;;;;;14.70;7.32;;;7.80;99.90;;;;;;5046242;28;20036;-56
2021/04/14 10:15:09;;;;;;;15.40;7.80;;;7.90;99.90;;;;;;5068042;28;20021;-56
2021/04/14 10:17:36;;;;;;;14.57;7.25;;;7.80;99.90;;;;;;5067360;28;20028;-56
2021/04/14 10:20:25;;;;;;;9.80;6.00;;;7.70;99.90;;;;;;5066730;28;20021;-57
2021/04/14 10:22:52;;;;;;;8.25;4.35;;;7.80;99.90;;;;;;5067261;28;20151;-57
2021/04/14 10:25:34;;;;;;;6.63;4.13;;;8.30;99.90;;;;;;5067207;28;20681;-57
2021/04/14 10:28:15;;;;;;;7.05;4.10;;;8.40;99.90;;;;;;5063650;28;20032;-56
2021/04/14 10:30:47;;;;;;;6.53;3.65;;;8.40;99.90;;;;;;5050939;28;20028;-56
2021/04/14 10:33:18;;;;;;;7.07;4.13;;;8.50;99.90;;;;;;5053644;28;20041;-55
2021/04/14 10:35:46;;;;;;;6.18;4.13;;;8.50;99.90;;;;;;5046792;28;20459;-55
2021/04/14 10:38:13;;;;;;;5.13;3.30;;;8.60;99.90;;;;;;5046837;28;20033;-55
2021/04/14 10:40:44;;;;;;;8.88;4.50;;;8.80;99.90;;;;;;5054672;28;20198;-56
2021/04/14 10:43:19;;;;;;;9.27;5.00;;;8.70;99.90;;;;;;5066387;28;20028;-54
2021/04/14 10:45:57;;;;;;;7.53;4.13;;;8.60;99.90;;;;;;5049285;28;20029;-56
2021/04/14 10:48:25;;;;;;;6.45;4.05;;;9.00;99.90;;;;;;5045951;28;20025;-56
2021/04/14 10:50:50;;;;;;;6.50;3.88;;;8.90;99.90;;;;;;5044425;28;20021;-55
2021/04/14 10:53:16;;;;;;;15.68;7.75;;;9.00;99.90;;;;;;5046394;28;20287;-57
2021/04/14 10:55:52;;;;;;;13.55;6.53;;;8.90;99.90;;;;;;5050316;28;20469;-55
2021/04/14 10:58:24;;;;;;;8.82;4.82;;;8.80;99.90;;;;;;5057751;28;20081;-56
2021/04/14 11:00:51;;;;;;;11.32;6.15;;;9.30;99.90;;;;;;5046496;28;20252;-55
2021/04/14 11:03:20;;;;;;;9.88;5.03;;;9.30;99.90;;;;;;5046270;28;20039;-55
2021/04/14 11:05:49;;;;;;;10.48;5.55;;;9.30;99.90;;;;;;5046575;28;20021;-55
2021/04/14 11:08:16;;;;;;;8.52;5.45;;;9.40;99.90;;;;;;5048193;28;20119;-55
2021/04/14 11:10:44;;;;;;;7.65;4.53;;;9.60;99.90;;;;;;5046471;28;20036;-56
2021/04/14 11:13:23;;;;;;;6.22;4.20;;;9.50;99.90;;;;;;5062842;28;20051;-56
2021/04/14 11:15:50;;;;;;;7.30;4.40;;;9.70;99.90;;;;;;5066359;28;20028;-55
2021/04/14 11:18:18;;;;;;;12.85;6.60;;;9.80;99.90;;;;;;5066364;28;20116;-56
2021/04/14 11:20:52;;;;;;;9.98;5.07;;;9.70;98.50;;;;;;5062765;28;20020;-54
2021/04/14 11:23:21;;;;;;;;;;;9.70;98.20;;;;;;5045961;28;20037;-56
2021/04/14 11:25:47;;;;;;;13.07;5.78;;;9.90;97.90;;;;;;5046122;28;19951;-55
2021/04/14 11:28:15;;;;;;;9.75;4.95;;;10.10;98.70;;;;;;5045440;28;20114;-55
2021/04/14 11:30:50;;;;;;;7.53;4.38;;;10.50;97.10;;;;;;5043640;28;20021;-56
2021/04/14 11:33:17;;;;;;;5.60;3.70;;;10.50;97.00;;;;;;5065141;28;20090;-55
2021/04/14 11:35:47;;;;;;;6.50;4.10;;;10.60;97.10;;;;;;5064552;28;20036;-54
2021/04/14 11:38:41;;;;;;;6.45;4.30;;;10.40;95.40;;;;;;5065116;28;20028;-55
2021/04/14 11:41:25;;;;;;;7.43;3.95;;;10.40;95.50;;;;;;5065534;28;20065;-55
2021/04/14 11:43:52;;;;;;;9.52;4.93;;;10.50;95.70;;;;;;5064528;28;20027;-54
2021/04/14 11:46:23;;;;;;;9.13;4.68;;;10.90;95.30;;;;;;5064939;28;20025;-55
2021/04/14 11:48:56;;;;;;;5.93;3.40;;;11.00;94.70;;;;;;5065385;28;20053;-54
2021/04/14 11:51:28;;;;;;;4.28;3.03;;;11.20;95.50;;;;;;5065063;28;20025;-54
2021/04/14 11:53:59;;;;;;;4.53;2.50;;;11.20;94.50;;;;;;5046630;28;20029;-53
2021/04/14 11:56:35;;;;;;;3.83;2.97;;;11.40;95.50;;;;;;5044325;28;20029;-54
2021/04/14 11:59:03;;;;;;;3.97;2.70;;;11.30;95.10;;;;;;5044236;28;20078;-54
2021/04/14 12:01:32;;;;;;;3.08;2.78;;;11.50;95.00;;;;;;5044624;28;20032;-51
2021/04/14 12:04:12;;;;;;;2.55;2.30;;;11.40;93.50;;;;;;5044575;28;20032;-54
2021/04/14 12:06:39;;;;;;;3.53;2.80;;;11.50;93.50;;;;;;5044399;28;20115;-52
2021/04/14 12:09:05;;;;;;;6.55;3.38;;;11.40;93.80;;;;;;5047426;28;20041;-55
2021/04/14 12:11:31;;;;;;;3.20;2.17;;;11.70;92.90;;;;;;5046677;28;20021;-55
2021/04/14 12:13:58;;;;;;;2.30;2.10;;;11.80;93.30;;;;;;5060980;28;20035;-55
2021/04/14 12:16:24;;;;;;;2.33;1.90;;;12.10;91.80;;;;;;5064351;28;20396;-54
2021/04/14 12:18:50;;;;;;;2.03;1.83;;;12.40;92.10;;;;;;5062998;28;20025;-53
2021/04/14 12:21:16;;;;;;;2.53;1.92;;;12.60;91.50;;;;;;5064297;28;20032;-55
2021/04/14 12:23:43;;;;;;;1.98;1.77;;;12.70;91.60;;;;;;5061347;28;20028;-55
2021/04/14 12:26:09;;;;;;;2.92;2.53;;;12.90;90.50;;;;;;5051773;28;20510;-54
2021/04/14 12:28:35;;;;;;;6.28;2.55;;;12.50;90.30;;;;;;5063891;28;20032;-54
2021/04/14 12:31:01;;;;;;;2.72;2.30;;;12.40;90.20;;;;;;5064093;28;20021;-53
2021/04/14 12:33:28;;;;;;;2.85;2.05;;;12.50;90.30;;;;;;5048134;28;20025;-54
2021/04/14 12:35:53;;;;;;;2.03;1.50;;;12.90;89.90;;;;;;5044319;28;20029;-55
2021/04/14 12:38:19;;;;;;;3.13;1.60;;;13.10;88.60;;;;;;5043303;28;20036;-54
2021/04/14 12:40:45;;;;;;;4.10;1.60;;;13.40;88.20;;;;;;5044237;28;20029;-55
2021/04/14 12:43:10;;;;;;;1.70;1.55;;;13.40;87.20;;;;;;5044024;28;20029;-54
2021/04/14 12:45:42;;;;;;;3.22;1.58;;;13.50;88.50;;;;;;5053536;28;20017;-54
2021/04/14 12:48:20;;;;;;;2.38;2.17;;;13.50;85.50;;;;;;5061932;28;20567;-53
2021/04/14 12:50:55;;;;;;;4.35;2.70;;;13.30;85.10;;;;;;5075096;28;20017;-55
2021/04/14 12:53:21;;;;;;;2.30;1.95;;;12.90;84.40;;;;;;5063989;28;20048;-54
2021/04/14 12:55:48;;;;;;;3.80;1.98;;;13.20;84.40;;;;;;5064010;28;20067;-54
2021/04/14 12:58:33;;;;;;;3.97;3.30;;;13.40;85.40;;;;;;5063497;28;20106;-54
2021/04/14 13:01:01;;;;;;;3.95;3.17;;;13.10;83.40;;;;;;5064107;28;20021;-54
2021/04/14 13:03:29;;;;;;;3.00;2.70;;;13.20;84.00;;;;;;5051023;28;20060;-54
2021/04/14 13:06:01;;;;;;;2.70;2.28;;;13.20;83.50;;;;;;5044158;28;20033;-54
2021/04/14 13:08:33;;;;;;;2.63;1.80;;;13.50;85.50;;;;;;5043203;28;20056;-54
2021/04/14 13:11:16;;;;;;;2.95;2.40;;;13.90;82.80;;;;;;5043826;28;20511;-54
2021/04/14 13:13:43;;;;;;;2.30;1.80;;;13.60;82.20;;;;;;5046189;28;20029;-56
2021/04/14 13:16:27;;;;;;;2.38;2.00;;;13.60;83.10;;;;;;5048112;28;20048;-56